Agenda, KS (66930)

5:22 PM CDT on July 28, 2016 (GMT -0500)
Rural Clifton | | Change Station
Active Advisory: Severe Thunderstorm Watch

Elev 1293 ft 39.59 °N, 97.27 °W | Updated 10 minutes ago

Clear
Clear
90.1 °F
Feels Like 96 °F
N
6.3
Wind Variable Wind from ENE

Today
High -- | Low -- °F
--% Chance of Precip.
Yesterday
High -- | Low -- °F
Precip. -- in
Pressure 29.90 in
Visibility 10.0 miles
Clouds Clear
Heat Index 96 °F
Dew Point 71 °F
Humidity 53%
Rainfall 0.00 in
Snow Depth Not available.
6:25 AM 8:46 PM
Waning Crescent, 28% visible
METAR KCNK 282155Z AUTO 07007KT 10SM CLR 31/17 A2995 RMK AO2 SLP124 T03110172
Pressure 29.90 in
Visibility 10.0 miles
Clouds Clear
Heat Index 96 °F
Dew Point 71 °F
Humidity 53%
Rainfall 0.00 in
Snow Depth Not available.
6:25 AM 8:46 PM
Waning Crescent, 28% visible
METAR KCNK 282155Z AUTO 07007KT 10SM CLR 31/17 A2995 RMK AO2 SLP124 T03110172

10-Day Weather Forecast

Almanac

Astronomy

Jul. 28, 2016 Rise Set
Actual Time
Civil Twilight
Nautical Twilight
Astronomical Twilight
Moon
Length of Visible Light
Length of Day
Tomorrow will be .
, % of the Moon is Illuminated

Today's Extremes

State Highs State Lows

Community

WunderPhotos

Upload Photos

1,928,220 photos uploaded!

WunderBlog® & News

Nearby

Air Quality

  Air Quality AQ Index Pollutant
Not available.

Snow Depth

Station Depth Elevation

Earthquake Activity

City Distance Mag. Time & Date
Minimum magnitude displayed is 2.5.

Coastal Water Temperatures

Place Temperature

Stations

Nearby Weather Stations

Station Location Temp. Windchill Dew Point Humidity Wind Precip. Elev Updated Type
                   

Watches & Warnings

Severe Thunderstorm Watch
Issued: 5:03 PM CDT Jul. 28, 2016 – National Weather Service

Severe Thunderstorm Watch 420 remains in effect until 1100 PM CDT
for the following locations


KS
. Kansas counties included are

Barton Butler cloud
Decatur Dickinson Edwards
Ellis Ellsworth Gove
Graham Harvey Jewell
Kingman Lincoln McPherson
Marion Mitchell Ness
Norton Osborne Ottawa
Pawnee Phillips Pratt
Reno Republic Rice
Rooks rush Russell
Saline Sedgwick Sheridan
Smith Stafford Trego